YHBK weather

Holbrook Airport
New South Wales, Australia

Public forecast

Using degrees Celsius for public forecast. Weather courtesy of forecast.io.

Closest aviation weather report (METAR) to Holbrook Airport

Closest report is Albury Airport, 28.9 nm (53.6 km) SW. Retrieved 2020/02/27 17:00 UTC (19 minutes ago):

YMAY 271700Z AUTO 00000KT 9999 // NCD 12/05 Q1010

Closest aviation forecast (TAF) to Holbrook Airport

Forecast is more than 12 hours old.

Closest forecast is Wagga Wagga City Airport, 31.9 nm (59.2 km) NNE. Retrieved 2018/05/25 18:03 UTC (2 years ago):

TAF YSWG 251649Z 2518/2608 07008KT CAVOK